createdAt,value
2022-09-07T00:00:40.313Z,100965.81
2022-09-07T00:03:07.136Z,100970.16
2022-09-07T00:05:34.190Z,100973.56
2022-09-07T00:08:00.934Z,100975.59
2022-09-07T00:10:27.555Z,100977.75
2022-09-07T00:12:54.134Z,100978.22
2022-09-07T00:15:20.718Z,100993.94
2022-09-07T00:17:47.265Z,100990.53
2022-09-07T00:20:15.037Z,100994.25
2022-09-07T00:22:41.805Z,100983.97
2022-09-07T00:25:08.785Z,100983.69
2022-09-07T00:27:35.336Z,100967.28
2022-09-07T00:30:02.014Z,100966.34
2022-09-07T00:32:28.636Z,100967.56
2022-09-07T00:34:55.231Z,100953.44
2022-09-07T00:37:21.837Z,100949.47
2022-09-07T00:39:49.465Z,100951.75
2022-09-07T00:42:18.759Z,100943.66
2022-09-07T00:45:20.722Z,100941.66
2022-09-07T00:48:02.495Z,100946.25
2022-09-07T00:50:39.313Z,100940.44
2022-09-07T00:53:12.694Z,100941.28
2022-09-07T00:55:42.512Z,100942.50
2022-09-07T00:58:09.833Z,100933.31
2022-09-07T01:00:36.945Z,100921.22
2022-09-07T01:03:05.464Z,100919.84
2022-09-07T01:05:42.771Z,100913.16
2022-09-07T01:08:12.107Z,100912.44
2022-09-07T01:10:39.187Z,100897.63
2022-09-07T01:13:06.423Z,100875.34
2022-09-07T01:16:05.299Z,100865.94
2022-09-07T01:18:50.037Z,100858.00
2022-09-07T01:21:38.482Z,100838.09
2022-09-07T01:24:29.871Z,100834.00
2022-09-07T01:27:11.884Z,100833.94
2022-09-07T01:29:41.546Z,100824.66
2022-09-07T01:32:35.874Z,100827.16
2022-09-07T01:35:08.783Z,100818.38
2022-09-07T01:37:48.014Z,100824.16
2022-09-07T01:40:23.609Z,100825.59
2022-09-07T01:43:13.518Z,100831.41
2022-09-07T01:45:43.682Z,100833.16
2022-09-07T01:48:15.361Z,100832.34
2022-09-07T01:50:56.069Z,100841.41
2022-09-07T01:53:38.029Z,100841.91
2022-09-07T01:56:12.477Z,100847.94
2022-09-07T01:58:39.039Z,100850.97
2022-09-07T02:01:24.591Z,100855.44
2022-09-07T02:04:00.870Z,100842.03
2022-09-07T02:06:43.607Z,100830.38
2022-09-07T02:09:25.583Z,100839.38
2022-09-07T02:11:53.570Z,100836.63
2022-09-07T02:14:34.381Z,100829.09
2022-09-07T02:17:09.790Z,100823.44
2022-09-07T02:19:44.393Z,100826.44
2022-09-07T02:22:18.534Z,100824.66
2022-09-07T02:24:50.762Z,100811.91
2022-09-07T02:27:24.303Z,100809.75
2022-09-07T02:29:52.117Z,100800.03
2022-09-07T02:32:19.013Z,100797.59
2022-09-07T02:34:46.241Z,100800.69
2022-09-07T02:37:15.457Z,100802.81
2022-09-07T02:39:42.084Z,100801.03
2022-09-07T02:42:09.330Z,100803.63
2022-09-07T02:44:39.586Z,100793.59
2022-09-07T02:47:24.924Z,100808.94
2022-09-07T02:50:10.180Z,100796.56
2022-09-07T02:53:04.329Z,100792.88
2022-09-07T02:56:26.507Z,100788.09
2022-09-07T02:59:23.768Z,100797.41
2022-09-07T03:02:02.124Z,100802.97
2022-09-07T03:04:48.121Z,100801.88
2022-09-07T03:07:35.672Z,100793.69
2022-09-07T03:10:06.025Z,100794.84
2022-09-07T03:12:47.264Z,100795.53
2022-09-07T03:15:20.220Z,100783.81
2022-09-07T03:17:47.175Z,100790.31
2022-09-07T03:20:14.494Z,100791.44
2022-09-07T03:22:41.125Z,100795.78
2022-09-07T03:25:08.098Z,100789.44
2022-09-07T03:27:34.795Z,100790.38
2022-09-07T03:30:02.165Z,100793.66
2022-09-07T03:32:33.517Z,100790.28
2022-09-07T03:35:00.675Z,100797.03
2022-09-07T03:37:27.734Z,100802.25
2022-09-07T03:39:54.433Z,100802.72
2022-09-07T03:42:21.165Z,100795.06
2022-09-07T03:44:51.039Z,100789.25
2022-09-07T03:47:18.238Z,100791.03
2022-09-07T03:49:44.913Z,100797.88
2022-09-07T03:52:11.808Z,100794.69
2022-09-07T03:54:39.733Z,100789.06
2022-09-07T03:57:06.582Z,100798.19
2022-09-07T03:59:33.377Z,100789.22
2022-09-07T04:02:00.165Z,100793.56
2022-09-07T04:04:26.859Z,100789.34
2022-09-07T04:06:53.423Z,100783.59
2022-09-07T04:09:20.093Z,100779.34
2022-09-07T04:11:46.881Z,100794.94
2022-09-07T04:14:13.476Z,100788.91
2022-09-07T04:16:40.436Z,100791.78
2022-09-07T04:19:07.077Z,100797.41
2022-09-07T04:21:34.722Z,100788.34
2022-09-07T04:24:01.436Z,100780.34
2022-09-07T04:26:30.835Z,100784.75
2022-09-07T04:28:58.600Z,100789.53
2022-09-07T04:31:25.679Z,100784.50
2022-09-07T04:33:52.953Z,100783.19
2022-09-07T04:36:20.820Z,100779.94
2022-09-07T04:38:54.058Z,100784.53
2022-09-07T04:41:20.640Z,100781.38
2022-09-07T04:43:48.132Z,100769.50
2022-09-07T04:46:29.766Z,100772.69
2022-09-07T04:49:01.630Z,100774.69
2022-09-07T04:51:30.733Z,100766.13
2022-09-07T04:53:59.524Z,100771.97
2022-09-07T04:56:26.602Z,100765.50
2022-09-07T04:58:53.466Z,100760.59
2022-09-07T05:01:23.279Z,100757.72
2022-09-07T05:03:50.315Z,100763.56
2022-09-07T05:06:19.095Z,100773.56
2022-09-07T05:08:48.541Z,100781.09
2022-09-07T05:11:16.343Z,100783.78
2022-09-07T05:13:43.390Z,100774.63
2022-09-07T05:16:18.274Z,100772.69
2022-09-07T05:18:48.873Z,100774.19
2022-09-07T05:21:18.005Z,100784.53
2022-09-07T05:23:44.660Z,100781.03
2022-09-07T05:26:12.339Z,100778.00
2022-09-07T05:28:41.118Z,100763.25
2022-09-07T05:36:39.177Z,100779.56
2022-09-07T05:39:06.880Z,100784.56
2022-09-07T05:41:33.856Z,100780.47
2022-09-07T05:46:47.056Z,100770.75
2022-09-07T05:49:13.651Z,100783.81
2022-09-07T05:51:41.063Z,100784.03
2022-09-07T05:54:07.719Z,100785.56
2022-09-07T05:56:36.015Z,100779.00
2022-09-07T05:59:03.237Z,100783.41
2022-09-07T06:01:30.082Z,100778.84
2022-09-07T06:03:56.815Z,100790.47
2022-09-07T06:06:23.566Z,100785.34
2022-09-07T06:08:52.351Z,100786.91
2022-09-07T06:11:21.611Z,100793.06
2022-09-07T06:13:48.334Z,100794.78
2022-09-07T06:16:16.510Z,100804.16
2022-09-07T06:18:45.848Z,100804.59
2022-09-07T06:21:16.322Z,100811.22
2022-09-07T06:23:43.955Z,100805.97
2022-09-07T06:26:11.877Z,100808.69
2022-09-07T06:28:41.310Z,100814.34
2022-09-07T06:31:13.629Z,100814.00
2022-09-07T06:33:41.910Z,100810.13
2022-09-07T06:36:14.061Z,100815.00
2022-09-07T06:38:41.189Z,100814.34
2022-09-07T06:43:58.534Z,100812.97
2022-09-07T06:49:13.366Z,100823.69
2022-09-07T06:51:39.985Z,100824.75
2022-09-07T06:56:53.364Z,100844.78
2022-09-07T06:59:19.978Z,100850.22
2022-09-07T07:01:46.643Z,100847.69
2022-09-07T07:04:14.038Z,100851.47
2022-09-07T07:06:40.681Z,100858.03
2022-09-07T07:09:12.091Z,100858.25
2022-09-07T07:11:38.748Z,100855.59
2022-09-07T07:14:05.390Z,100866.47
2022-09-07T07:16:32.088Z,100862.28
2022-09-07T07:18:58.744Z,100871.25
2022-09-07T07:21:25.385Z,100872.56
2022-09-07T07:23:52.868Z,100869.50
2022-09-07T07:26:22.197Z,100867.09
2022-09-07T07:29:06.300Z,100861.34
2022-09-07T07:31:33.726Z,100869.38
2022-09-07T07:34:00.393Z,100874.22
2022-09-07T07:36:27.289Z,100872.28
2022-09-07T07:38:59.373Z,100875.59
2022-09-07T07:44:18.537Z,100880.53
2022-09-07T07:46:48.318Z,100899.53
2022-09-07T07:49:14.894Z,100884.06
2022-09-07T07:54:28.099Z,100885.94
2022-09-07T07:56:54.658Z,100883.28
2022-09-07T07:59:21.180Z,100884.53
2022-09-07T08:01:47.817Z,100878.41
2022-09-07T08:04:14.448Z,100877.72
2022-09-07T08:06:44.034Z,100871.28
2022-09-07T08:09:11.927Z,100859.41
2022-09-07T08:11:40.198Z,100851.63
2022-09-07T08:14:08.530Z,100862.34
2022-09-07T08:16:36.236Z,100879.84
2022-09-07T08:19:03.414Z,100883.75
2022-09-07T08:21:29.932Z,100879.53
2022-09-07T08:23:56.409Z,100868.91
2022-09-07T08:26:22.888Z,100876.75
2022-09-07T08:28:49.415Z,100875.19
2022-09-07T08:31:17.108Z,100875.22
2022-09-07T08:33:44.139Z,100890.56
2022-09-07T08:36:13.061Z,100899.97
2022-09-07T08:38:40.124Z,100895.13
2022-09-07T08:41:27.659Z,100898.13
2022-09-07T08:44:05.412Z,100897.97
2022-09-07T08:46:46.735Z,100907.88
2022-09-07T08:49:18.779Z,100904.72
2022-09-07T08:51:55.427Z,100908.78
2022-09-07T08:54:22.098Z,100895.38
2022-09-07T09:00:08.627Z,100900.28
2022-09-07T09:05:35.877Z,100899.78
2022-09-07T09:06:11.268Z,100896.16
2022-09-07T09:08:33.475Z,100896.66
2022-09-07T09:11:10.418Z,100895.66
2022-09-07T09:13:55.290Z,100889.19
2022-09-07T09:16:29.593Z,100893.81
2022-09-07T09:19:18.003Z,100904.09
2022-09-07T09:21:45.054Z,100911.16
2022-09-07T09:24:18.999Z,100918.31
2022-09-07T09:26:53.080Z,100914.84
2022-09-07T09:29:22.136Z,100911.59
2022-09-07T09:31:48.820Z,100915.25
2022-09-07T09:34:23.864Z,100921.00
2022-09-07T09:36:55.837Z,100911.72
2022-09-07T09:39:34.046Z,100913.03
2022-09-07T09:42:23.574Z,100915.00
2022-09-07T09:44:50.849Z,100913.56
2022-09-07T09:47:36.021Z,100923.41
2022-09-07T09:52:29.302Z,100925.09
2022-09-07T09:53:04.379Z,100924.22
2022-09-07T09:55:36.982Z,100925.50
2022-09-07T10:01:26.881Z,100923.50
2022-09-07T10:06:25.433Z,100933.34
2022-09-07T10:08:57.928Z,100933.59
2022-09-07T10:14:34.145Z,100932.91
2022-09-07T10:17:02.115Z,100928.56
2022-09-07T10:19:34.460Z,100939.38
2022-09-07T10:22:04.069Z,100935.19
2022-09-07T10:24:38.975Z,100931.50
2022-09-07T10:27:33.190Z,100928.09
2022-09-07T10:30:01.055Z,100928.66
2022-09-07T10:32:42.856Z,100930.03
2022-09-07T10:35:33.205Z,100931.41
2022-09-07T10:38:19.334Z,100926.72
2022-09-07T10:40:54.162Z,100922.53
2022-09-07T10:43:43.605Z,100926.13
2022-09-07T10:49:35.917Z,100912.34
2022-09-07T10:52:23.133Z,100914.13
2022-09-07T10:54:55.627Z,100906.91
2022-09-07T10:57:28.511Z,100896.16
2022-09-07T11:00:12.716Z,100891.97
2022-09-07T11:03:29.036Z,100897.00
2022-09-07T11:06:20.075Z,100899.66
2022-09-07T11:09:24.062Z,100900.69
2022-09-07T11:12:14.460Z,100892.19
2022-09-07T11:14:53.217Z,100895.53
2022-09-07T11:17:26.464Z,100896.63
2022-09-07T11:20:01.112Z,100890.72
2022-09-07T11:22:41.405Z,100889.81
2022-09-07T11:25:33.862Z,100891.22
2022-09-07T11:28:20.892Z,100884.31
2022-09-07T11:31:00.452Z,100887.72
2022-09-07T11:36:46.184Z,100871.81
2022-09-07T11:39:26.712Z,100872.78
2022-09-07T11:45:15.877Z,100868.38
2022-09-07T11:47:52.495Z,100875.47
2022-09-07T11:50:23.052Z,100864.84
2022-09-07T11:52:54.840Z,100863.53
2022-09-07T11:55:36.739Z,100869.22
2022-09-07T11:58:44.940Z,100866.84
2022-09-07T12:01:39.400Z,100868.28
2022-09-07T12:04:35.786Z,100851.44
2022-09-07T12:07:34.713Z,100863.66
2022-09-07T12:10:07.482Z,100855.34
2022-09-07T12:12:56.573Z,100861.03
2022-09-07T12:15:44.461Z,100849.78
2022-09-07T12:18:26.644Z,100854.88
2022-09-07T12:20:53.228Z,100848.41
2022-09-07T12:23:27.752Z,100851.75
2022-09-07T12:26:32.641Z,100850.25
2022-09-07T12:28:59.051Z,100859.00
2022-09-07T12:31:58.753Z,100849.47
2022-09-07T12:34:32.063Z,100846.81
2022-09-07T12:37:00.136Z,100852.53
2022-09-07T12:39:30.589Z,100845.84
2022-09-07T12:45:30.452Z,100841.06
2022-09-07T12:47:59.347Z,100838.22
2022-09-07T12:50:38.239Z,100831.19
2022-09-07T12:53:12.640Z,100823.88
2022-09-07T12:56:16.528Z,100828.09
2022-09-07T12:58:49.256Z,100825.28
2022-09-07T13:01:36.458Z,100827.13
2022-09-07T13:04:08.836Z,100824.09
2022-09-07T13:07:02.026Z,100828.84
2022-09-07T13:09:41.307Z,100819.09
2022-09-07T13:12:55.300Z,100819.09
2022-09-07T13:15:41.925Z,100813.59
2022-09-07T13:18:34.354Z,100807.38
2022-09-07T13:21:06.959Z,100811.72
2022-09-07T13:23:34.798Z,100813.22
2022-09-07T13:26:03.436Z,100812.38
2022-09-07T13:28:52.427Z,100813.72
2022-09-07T13:31:46.213Z,100809.38
2022-09-07T13:34:43.813Z,100804.03
2022-09-07T13:37:18.122Z,100796.97
2022-09-07T13:39:49.406Z,100805.69
2022-09-07T13:42:23.563Z,100804.19
2022-09-07T13:44:55.613Z,100802.69
2022-09-07T13:47:31.348Z,100798.81
2022-09-07T13:50:11.695Z,100787.25
2022-09-07T13:53:06.030Z,100789.28
2022-09-07T13:55:56.118Z,100778.69
2022-09-07T13:58:34.087Z,100776.53
2022-09-07T14:01:12.966Z,100777.03
2022-09-07T14:03:48.025Z,100774.00
2022-09-07T14:06:25.498Z,100775.53
2022-09-07T14:08:55.229Z,100767.78
2022-09-07T14:11:39.869Z,100770.13
2022-09-07T14:14:16.722Z,100773.16
2022-09-07T14:16:46.813Z,100766.44
2022-09-07T14:19:19.368Z,100766.94
2022-09-07T14:21:57.890Z,100765.47
2022-09-07T14:24:40.132Z,100763.91
2022-09-07T14:27:21.129Z,100768.78
2022-09-07T14:29:47.823Z,100766.78
2022-09-07T14:32:22.137Z,100764.28
2022-09-07T14:34:49.918Z,100761.59
2022-09-07T14:37:19.518Z,100755.19
2022-09-07T14:39:50.733Z,100765.78
2022-09-07T14:42:23.123Z,100763.44
2022-09-07T14:44:50.194Z,100763.78
2022-09-07T14:47:30.506Z,100774.00
2022-09-07T14:50:05.667Z,100758.22
2022-09-07T14:52:42.492Z,100764.75
2022-09-07T14:55:31.906Z,100754.53
2022-09-07T14:58:22.106Z,100745.44
2022-09-07T15:04:01.838Z,100752.50
2022-09-07T15:09:50.900Z,100739.72
2022-09-07T15:12:27.177Z,100748.47
2022-09-07T15:15:10.572Z,100745.47
2022-09-07T15:17:44.809Z,100745.13
2022-09-07T15:20:36.640Z,100744.09
2022-09-07T15:23:05.528Z,100752.19
2022-09-07T15:25:32.812Z,100742.28
2022-09-07T15:28:00.300Z,100745.66
2022-09-07T15:30:27.320Z,100751.69
2022-09-07T15:32:56.885Z,100737.75
2022-09-07T15:35:23.765Z,100733.00
2022-09-07T15:38:58.949Z,100728.97
2022-09-07T15:41:03.768Z,100727.63
2022-09-07T15:43:29.593Z,100728.13
2022-09-07T15:45:56.253Z,100718.88
2022-09-07T15:48:26.673Z,100720.69
2022-09-07T15:52:04.520Z,100727.94
2022-09-07T15:54:12.744Z,100723.09
2022-09-07T15:56:39.495Z,100719.06
2022-09-07T15:59:06.339Z,100710.50
2022-09-07T16:04:19.423Z,100711.31
2022-09-07T16:06:48.187Z,100705.25
2022-09-07T16:09:16.161Z,100707.44
2022-09-07T16:11:42.648Z,100705.50
2022-09-07T16:14:12.277Z,100705.81
2022-09-07T16:19:25.225Z,100703.19
2022-09-07T16:21:51.797Z,100706.84
2022-09-07T16:24:18.311Z,100700.63
2022-09-07T16:26:44.901Z,100703.50
2022-09-07T16:29:11.404Z,100708.03
2022-09-07T16:31:38.407Z,100703.19
2022-09-07T16:34:05.034Z,100699.34
2022-09-07T16:36:31.999Z,100695.00
2022-09-07T16:39:00.776Z,100683.59
2022-09-07T16:41:31.286Z,100687.28
2022-09-07T16:43:58.653Z,100688.25
2022-09-07T16:46:27.795Z,100685.88
2022-09-07T16:48:55.099Z,100689.75
2022-09-07T16:51:23.685Z,100692.94
2022-09-07T16:53:52.981Z,100684.38
2022-09-07T16:56:23.525Z,100688.56
2022-09-07T16:58:59.088Z,100688.53
2022-09-07T17:01:27.315Z,100684.97
2022-09-07T17:03:54.240Z,100694.00
2022-09-07T17:06:23.726Z,100687.28
2022-09-07T17:08:50.701Z,100692.16
2022-09-07T17:11:21.941Z,100695.25
2022-09-07T17:13:49.241Z,100693.94
2022-09-07T17:16:19.827Z,100690.19
2022-09-07T17:21:36.962Z,100687.31
2022-09-07T17:24:05.137Z,100693.84
2022-09-07T17:26:32.633Z,100689.97
2022-09-07T17:29:01.120Z,100684.59
2022-09-07T17:34:19.835Z,100680.63
2022-09-07T17:36:46.994Z,100673.09
2022-09-07T17:39:15.030Z,100671.75
2022-09-07T17:41:42.812Z,100676.19
2022-09-07T17:44:09.340Z,100671.50
2022-09-07T17:46:36.206Z,100656.72
2022-09-07T17:49:03.533Z,100656.72
2022-09-07T17:51:32.716Z,100653.00
2022-09-07T17:54:02.647Z,100655.03
2022-09-07T17:56:29.618Z,100651.69
2022-09-07T18:00:10.603Z,100652.38
2022-09-07T18:01:43.304Z,100657.59
2022-09-07T18:04:10.955Z,100657.09
2022-09-07T18:06:37.737Z,100650.38
2022-09-07T18:09:05.303Z,100648.03
2022-09-07T18:11:49.422Z,100646.91
2022-09-07T18:14:16.662Z,100645.06
2022-09-07T18:16:45.429Z,100650.28
2022-09-07T18:19:12.574Z,100651.81
2022-09-07T18:21:42.907Z,100661.53
2022-09-07T18:24:16.741Z,100660.38
2022-09-07T18:26:43.871Z,100665.91
2022-09-07T18:29:27.403Z,100670.22
2022-09-07T18:31:55.136Z,100675.28
2022-09-07T18:34:22.209Z,100676.75
2022-09-07T18:36:49.138Z,100681.38
2022-09-07T18:39:15.730Z,100678.38
2022-09-07T18:41:42.362Z,100676.22
2022-09-07T18:46:55.993Z,100677.75
2022-09-07T18:49:22.490Z,100674.75
2022-09-07T18:54:35.618Z,100666.03
2022-09-07T18:57:02.089Z,100661.34
2022-09-07T18:59:29.739Z,100664.34
2022-09-07T19:02:01.374Z,100670.88
2022-09-07T19:05:49.472Z,100664.50
2022-09-07T19:07:16.992Z,100658.16
2022-09-07T19:09:43.540Z,100669.19
2022-09-07T19:12:10.060Z,100662.13
2022-09-07T19:14:36.685Z,100663.63
2022-09-07T19:17:03.245Z,100669.16
2022-09-07T19:19:29.859Z,100649.72
2022-09-07T19:21:57.759Z,100656.75
2022-09-07T19:24:25.624Z,100661.09
2022-09-07T19:26:55.745Z,100657.59
2022-09-07T19:29:25.676Z,100660.09
2022-09-07T19:32:05.447Z,100661.09
2022-09-07T19:34:37.675Z,100666.47
2022-09-07T19:37:06.170Z,100664.78
2022-09-07T19:39:32.823Z,100655.09
2022-09-07T19:41:59.705Z,100664.78
2022-09-07T19:44:26.456Z,100649.84
2022-09-07T19:46:53.022Z,100641.94
2022-09-07T19:49:19.738Z,100647.44
2022-09-07T19:51:46.445Z,100644.59
2022-09-07T19:54:13.611Z,100641.72
2022-09-07T19:56:42.736Z,100629.63
2022-09-07T19:59:09.687Z,100617.28
2022-09-07T20:01:38.479Z,100625.16
2022-09-07T20:04:07.536Z,100624.28
2022-09-07T20:06:37.885Z,100632.16
2022-09-07T20:09:05.492Z,100630.84
2022-09-07T20:11:34.811Z,100625.97
2022-09-07T20:14:01.457Z,100615.75
2022-09-07T20:16:28.228Z,100609.00
2022-09-07T20:19:03.100Z,100609.00
2022-09-07T20:21:39.286Z,100607.19
2022-09-07T20:24:06.114Z,100612.38
2022-09-07T20:26:32.720Z,100604.00
2022-09-07T20:29:16.727Z,100591.09
2022-09-07T20:31:46.846Z,100586.75
2022-09-07T20:34:14.047Z,100590.59
2022-09-07T20:36:40.523Z,100577.06
2022-09-07T20:39:07.105Z,100576.19
2022-09-07T20:41:34.737Z,100579.00
2022-09-07T20:44:03.016Z,100580.09
2022-09-07T20:46:31.765Z,100577.91
2022-09-07T20:48:58.427Z,100578.59
2022-09-07T20:51:25.597Z,100581.94
2022-09-07T20:53:52.711Z,100584.09
2022-09-07T20:56:25.809Z,100583.25
2022-09-07T20:58:57.726Z,100582.09
2022-09-07T21:01:24.684Z,100585.44
2022-09-07T21:03:53.948Z,100585.44
2022-09-07T21:06:22.291Z,100579.25
2022-09-07T21:08:50.218Z,100574.75
2022-09-07T21:11:22.203Z,100565.22
2022-09-07T21:13:58.275Z,100571.38
2022-09-07T21:16:25.805Z,100567.34
2022-09-07T21:18:55.362Z,100568.94
2022-09-07T21:21:23.084Z,100565.16
2022-09-07T21:23:55.045Z,100556.25
2022-09-07T21:26:21.591Z,100556.13
2022-09-07T21:28:48.444Z,100559.25
2022-09-07T21:31:14.955Z,100555.19
2022-09-07T21:33:41.502Z,100554.69
2022-09-07T21:36:10.888Z,100559.66
2022-09-07T21:38:38.958Z,100562.28
2022-09-07T21:41:10.088Z,100557.59
2022-09-07T21:43:37.126Z,100558.97
2022-09-07T21:46:31.489Z,100562.28
2022-09-07T21:48:59.257Z,100554.63
2022-09-07T21:51:26.978Z,100548.00
2022-09-07T21:53:57.773Z,100549.81
2022-09-07T21:56:25.042Z,100540.16
2022-09-07T21:58:55.550Z,100541.13
2022-09-07T22:01:23.910Z,100538.31
2022-09-07T22:03:56.212Z,100539.69
2022-09-07T22:06:23.501Z,100529.81
2022-09-07T22:08:50.076Z,100537.53
2022-09-07T22:11:19.587Z,100537.00
2022-09-07T22:13:46.024Z,100541.66
2022-09-07T22:16:13.547Z,100545.63
2022-09-07T22:18:43.897Z,100538.09
2022-09-07T22:21:14.702Z,100542.56
2022-09-07T22:23:45.336Z,100546.94
2022-09-07T22:26:13.316Z,100542.91
2022-09-07T22:28:40.102Z,100548.38
2022-09-07T22:31:22.162Z,100541.53
2022-09-07T22:33:50.080Z,100547.00
2022-09-07T22:36:22.949Z,100550.16
2022-09-07T22:38:52.272Z,100560.44
2022-09-07T22:41:21.440Z,100550.38
2022-09-07T22:43:50.799Z,100545.72
2022-09-07T22:46:18.933Z,100544.41
2022-09-07T22:48:45.695Z,100536.94
2022-09-07T22:51:12.652Z,100532.75
2022-09-07T22:53:41.732Z,100525.03
2022-09-07T22:56:18.435Z,100517.38
2022-09-07T22:58:50.181Z,100514.97
2022-09-07T23:01:17.271Z,100514.31
2022-09-07T23:03:45.001Z,100523.59
2022-09-07T23:06:22.624Z,100516.66
2022-09-07T23:08:51.419Z,100514.28
2022-09-07T23:11:18.355Z,100515.25
2022-09-07T23:13:45.416Z,100516.13
2022-09-07T23:16:12.279Z,100517.09
2022-09-07T23:18:40.797Z,100499.72
2022-09-07T23:21:08.341Z,100490.44
2022-09-07T23:23:35.313Z,100489.59
2022-09-07T23:26:03.053Z,100477.41
2022-09-07T23:28:30.588Z,100476.72
2022-09-07T23:30:57.685Z,100472.75
2022-09-07T23:33:26.080Z,100465.72
2022-09-07T23:36:02.046Z,100467.00
2022-09-07T23:38:29.531Z,100463.50
2022-09-07T23:40:57.454Z,100461.97
2022-09-07T23:43:27.148Z,100460.16
2022-09-07T23:45:54.418Z,100462.66
2022-09-07T23:48:21.750Z,100462.28
2022-09-07T23:50:48.849Z,100456.38
2022-09-07T23:53:16.605Z,100444.97
2022-09-07T23:55:43.469Z,100446.53
2022-09-07T23:58:10.297Z,100445.66
